Time;durP1;ratioP1;P1;durP2;ratioP2;P2;SDS_P1;SDS_P2;PMS_P1;PMS_P2;Temp;Humidity;BMP_temperature;BMP_pressure;BME280_temperature;BME280_humidity;BME280_pressure;Samples;Min_cycle;Max_cycle;Signal;HPM_P1;HPM_P2
2022/12/18 00:00:46;;;;;;;1999.90;999.90;;;1.20;1.00;;;;;;5038653;28;20389;-80
2022/12/18 00:03:13;;;;;;;1999.90;999.90;;;3.30;1.00;;;;;;5024849;28;20249;-81
2022/12/18 00:05:50;;;;;;;1999.90;999.90;;;0.80;1.00;;;;;;5040987;28;20045;-80
2022/12/18 00:08:16;;;;;;;1999.90;999.90;;;-0.80;2.60;;;;;;5041173;28;20040;-81
2022/12/18 00:10:41;;;;;;;1999.90;999.90;;;2.40;1.00;;;;;;5038820;28;20080;-81
2022/12/18 00:13:07;;;;;;;1999.90;999.90;;;-0.50;1.00;;;;;;5040628;28;20083;-81
2022/12/18 00:15:37;;;;;;;1999.90;999.90;;;3.00;1.00;;;;;;5042673;28;20078;-81
2022/12/18 00:18:03;;;;;;;1999.90;999.90;;;2.20;1.00;;;;;;5040092;28;20071;-81
2022/12/18 00:20:29;;;;;;;1999.90;999.90;;;1.40;1.00;;;;;;5031544;28;20053;-81
2022/12/18 00:22:55;;;;;;;1999.90;999.90;;;-2.30;1.00;;;;;;5040235;28;20099;-81
2022/12/18 00:25:21;;;;;;;1999.90;999.90;;;3.40;1.00;;;;;;5045214;28;20036;-81
2022/12/18 00:27:47;;;;;;;1999.90;999.90;;;;;;;;;;5044982;28;20132;-81
2022/12/18 00:30:13;;;;;;;1999.90;999.90;;;;;;;;;;5043341;28;20041;-81
2022/12/18 00:32:39;;;;;;;1999.90;999.90;;;-0.70;99.90;;;;;;5044089;28;20497;-81
2022/12/18 00:35:06;;;;;;;1999.90;999.90;;;0.80;99.90;;;;;;5046446;28;20041;-81
2022/12/18 00:37:33;;;;;;;1999.90;999.90;;;0.80;99.90;;;;;;5027872;28;20127;-81
2022/12/18 00:39:59;;;;;;;1999.90;999.90;;;;;;;;;;5045894;28;21716;-81
2022/12/18 00:45:10;;;;;;;1999.90;999.90;;;;;;;;;;5047339;28;20036;-80
2022/12/18 00:47:35;;;;;;;1999.90;999.90;;;-0.10;1.00;;;;;;5045657;28;20068;-80
2022/12/18 00:50:01;;;;;;;1999.90;999.90;;;1.00;1.00;;;;;;5045182;28;20466;-81
2022/12/18 00:52:27;;;;;;;1999.90;999.90;;;0.80;1.00;;;;;;5028673;28;20049;-81
2022/12/18 00:54:53;;;;;;;1999.90;999.90;;;1.30;1.00;;;;;;5010524;28;20068;-81
2022/12/18 00:57:19;;;;;;;1999.90;999.90;;;-0.40;1.00;;;;;;5044286;28;20052;-81
2022/12/18 00:59:45;;;;;;;1999.90;999.90;;;;;;;;;;5045044;28;20504;-81
2022/12/18 01:02:11;;;;;;;1999.90;999.90;;;0.20;1.00;;;;;;5042982;28;20059;-80
2022/12/18 01:04:37;;;;;;;1999.90;999.90;;;;;;;;;;5031357;28;20726;-80
2022/12/18 01:07:02;;;;;;;1999.90;999.90;;;0.50;1.00;;;;;;5044586;28;20076;-80
2022/12/18 01:09:28;;;;;;;1999.90;999.90;;;;;;;;;;5047231;28;22099;-81
2022/12/18 01:11:54;;;;;;;1999.90;999.90;;;-0.20;1.00;;;;;;5044720;28;20041;-80
2022/12/18 01:14:20;;;;;;;1999.90;999.90;;;;;;;;;;5046325;28;20086;-81
2022/12/18 01:16:46;;;;;;;1999.90;999.90;;;;;;;;;;5043126;28;20048;-81
2022/12/18 01:19:12;;;;;;;1999.90;999.90;;;0.40;99.90;;;;;;5045947;28;20061;-81
2022/12/18 01:21:38;;;;;;;1999.90;999.90;;;4.10;1.00;;;;;;5045122;28;20056;-81
2022/12/18 01:24:04;;;;;;;1999.90;999.90;;;2.50;1.00;;;;;;5015798;28;20224;-82
2022/12/18 01:26:30;;;;;;;1999.90;999.90;;;;;;;;;;5043671;28;20120;-80
2022/12/18 01:28:56;;;;;;;1999.90;999.90;;;-0.40;1.00;;;;;;5042393;28;20055;-81
2022/12/18 01:31:25;;;;;;;1999.90;999.90;;;0.10;1.00;;;;;;5041884;28;20045;-81
2022/12/18 01:33:52;;;;;;;1999.90;999.90;;;0.70;1.00;;;;;;5024371;28;20037;-81
2022/12/18 01:36:20;;;;;;;1999.90;999.90;;;1.40;1.00;;;;;;5040927;28;20088;-81
2022/12/18 01:38:47;;;;;;;1999.90;999.90;;;0.60;1.00;;;;;;5046542;28;20053;-82
2022/12/18 01:41:13;;;;;;;1999.90;999.90;;;;;;;;;;5044402;28;20741;-82
2022/12/18 01:43:57;;;;;;;1999.90;999.90;;;2.90;1.00;;;;;;5041646;28;20048;-82
2022/12/18 01:46:24;;;;;;;1999.90;999.90;;;-1.70;1.00;;;;;;5044033;28;20536;-83
2022/12/18 01:49:00;;;;;;;1999.90;999.90;;;0.40;1.00;;;;;;5043640;28;20036;-83
2022/12/18 01:51:28;;;;;;;1999.90;999.90;;;0.30;1.00;;;;;;5043107;28;20385;-82
2022/12/18 01:53:54;;;;;;;1999.90;999.90;;;;;;;;;;5042382;28;20080;-82
2022/12/18 01:56:21;;;;;;;1999.90;999.90;;;0.40;1.00;;;;;;5044513;28;20046;-82
2022/12/18 01:59:08;;;;;;;1999.90;999.90;;;0.40;1.00;;;;;;5043137;28;20362;-82
2022/12/18 02:01:34;;;;;;;1999.90;999.90;;;;;;;;;;5043334;28;20037;-83
2022/12/18 02:04:25;;;;;;;1999.90;999.90;;;1.20;1.00;;;;;;5026799;28;20047;-82
2022/12/18 02:06:57;;;;;;;1999.90;999.90;;;-0.50;1.00;;;;;;5045171;28;20103;-81
2022/12/18 02:09:40;;;;;;;1999.90;999.90;;;0.60;1.00;;;;;;5043866;28;20033;-82
2022/12/18 02:12:11;;;;;;;1999.90;999.90;;;-1.00;1.00;;;;;;5042302;28;20112;-82
2022/12/18 02:14:42;;;;;;;1999.90;999.90;;;-0.30;1.00;;;;;;5039577;28;20095;-83
2022/12/18 02:17:17;;;;;;;1999.90;999.90;;;-0.10;99.90;;;;;;5041609;28;20067;-82
2022/12/18 02:20:21;;;;;;;1999.90;999.90;;;0.20;1.00;;;;;;5043449;28;20043;-83
2022/12/18 02:23:01;;;;;;;1999.90;999.90;;;0.20;1.00;;;;;;5040302;28;20094;-83
2022/12/18 02:25:27;;;;;;;1999.90;999.90;;;;;;;;;;5024080;28;20446;-82
2022/12/18 02:27:56;;;;;;;1999.90;999.90;;;0.70;1.00;;;;;;5040206;28;20068;-83
2022/12/18 02:30:22;;;;;;;1999.90;999.90;;;0.30;1.00;;;;;;5043583;28;20378;-82
2022/12/18 02:32:53;;;;;;;1999.90;999.90;;;-0.10;1.00;;;;;;5043415;28;20056;-83
2022/12/18 02:35:30;;;;;;;1999.90;999.90;;;0.30;99.90;;;;;;5043966;28;20037;-83
2022/12/18 02:37:56;;;;;;;1999.90;999.90;;;;;;;;;;5041534;28;20059;-82
2022/12/18 02:40:24;;;;;;;1999.90;999.90;;;0.20;99.90;;;;;;5044667;28;20041;-83
2022/12/18 02:42:50;;;;;;;;;;;0.10;1.00;;;;;;5044847;28;20045;-83
2022/12/18 02:45:16;;;;;;;1999.90;999.90;;;0.30;1.00;;;;;;5041563;28;19925;-82
2022/12/18 02:47:45;;;;;;;1999.90;999.90;;;-0.10;99.90;;;;;;5043432;28;20090;-83
2022/12/18 02:53:03;;;;;;;1999.90;999.90;;;-0.10;99.90;;;;;;5256935;22;20056;-80
2022/12/18 02:55:32;;;;;;;1999.90;999.90;;;-1.60;1.00;;;;;;5024837;28;20049;-82
2022/12/18 02:58:11;;;;;;;1999.90;999.90;;;-0.10;99.90;;;;;;5023970;28;20428;-83
2022/12/18 03:00:43;;;;;;;;;;;1.50;1.00;;;;;;5027570;28;20053;-80
2022/12/18 03:03:20;;;;;;;1999.90;999.90;;;0.60;99.90;;;;;;5024801;28;19989;-81
2022/12/18 03:05:58;;;;;;;1999.90;999.90;;;0.20;99.90;;;;;;5025453;28;20155;-82
2022/12/18 03:08:36;;;;;;;1999.90;999.90;;;-0.70;1.00;;;;;;4992117;28;20128;-80
2022/12/18 03:11:05;;;;;;;1999.90;999.90;;;1.00;99.90;;;;;;5007618;28;20315;-81
2022/12/18 03:13:41;;;;;;;1999.90;999.90;;;-1.20;99.90;;;;;;5009102;28;20112;-81
2022/12/18 03:16:10;;;;;;;1999.90;999.90;;;-0.20;99.90;;;;;;5023393;28;20041;-84
2022/12/18 03:18:48;;;;;;;1999.90;999.90;;;-0.20;99.90;;;;;;5024284;28;20145;-83
2022/12/18 03:21:17;;;;;;;1999.90;999.90;;;-0.20;99.90;;;;;;5007733;28;20045;-87
2022/12/18 03:23:47;;;;;;;1999.90;999.90;;;2.30;99.90;;;;;;5025147;28;20049;-82
2022/12/18 03:26:17;;;;;;;1999.90;999.90;;;0.90;99.90;;;;;;5025547;28;20049;-81
2022/12/18 03:28:49;;;;;;;1999.90;999.90;;;-2.40;99.90;;;;;;5022686;28;20100;-82
2022/12/18 03:31:15;;;;;;;1999.90;999.90;;;1.10;99.90;;;;;;5022253;28;20064;-82
2022/12/18 03:33:50;;;;;;;1999.90;999.90;;;1.30;99.90;;;;;;5004084;28;20045;-79
2022/12/18 03:36:16;;;;;;;1999.90;999.90;;;;;;;;;;5005579;28;20053;-79
2022/12/18 03:38:42;;;;;;;1999.90;999.90;;;;;;;;;;5023451;28;20053;-80
2022/12/18 03:41:16;;;;;;;1999.90;999.90;;;-0.30;99.90;;;;;;5008388;28;20065;-79
2022/12/18 03:44:06;;;;;;;1999.90;999.90;;;-0.40;99.90;;;;;;5022894;28;20041;-80
2022/12/18 03:46:51;;;;;;;1999.90;999.90;;;-0.40;99.90;;;;;;5023881;28;20390;-80
2022/12/18 03:49:30;;;;;;;1999.90;999.90;;;-1.90;99.90;;;;;;5023134;28;20044;-79
2022/12/18 03:52:31;;;;;;;1999.90;999.90;;;-2.00;99.90;;;;;;5024060;28;20068;-79
2022/12/18 03:54:59;;;;;;;1999.90;999.90;;;-0.50;99.90;;;;;;4992219;28;20048;-80
2022/12/18 03:57:28;;;;;;;1999.90;999.90;;;1.90;99.90;;;;;;5022992;28;20049;-82
2022/12/18 04:00:08;;;;;;;1999.90;999.90;;;-0.40;99.90;;;;;;5003431;28;20034;-80
2022/12/18 04:02:36;;;;;;;1999.90;999.90;;;-0.60;99.90;;;;;;5003708;28;20045;-82
2022/12/18 04:05:04;;;;;;;1999.90;999.90;;;0.80;99.90;;;;;;5004164;28;20378;-80
2022/12/18 04:07:31;;;;;;;1999.90;999.90;;;0.90;99.90;;;;;;5024269;28;20107;-79
2022/12/18 04:10:00;;;;;;;1999.90;999.90;;;-0.30;99.90;;;;;;5022180;28;20046;-79
2022/12/18 04:12:28;;;;;;;1999.90;999.90;;;-1.50;99.90;;;;;;5021138;28;20068;-79
2022/12/18 04:14:54;;;;;;;1999.90;999.90;;;-1.10;99.90;;;;;;5023846;28;20037;-78
2022/12/18 04:17:20;;;;;;;1999.90;999.90;;;0.40;99.90;;;;;;5002044;28;20068;-79
2022/12/18 04:19:46;;;;;;;1999.90;999.90;;;-1.70;99.90;;;;;;5025387;28;20045;-78
2022/12/18 04:22:12;;;;;;;1999.90;999.90;;;-0.20;99.90;;;;;;5018613;28;20466;-78
2022/12/18 04:24:37;;;;;;;1999.90;999.90;;;-1.10;99.90;;;;;;5021122;28;20046;-78
2022/12/18 04:27:04;;;;;;;1999.90;999.90;;;-1.30;99.90;;;;;;5020814;28;20045;-82
2022/12/18 04:29:30;;;;;;;1999.90;999.90;;;;;;;;;;5022160;28;20029;-79
2022/12/18 04:31:56;;;;;;;1999.90;999.90;;;;;;;;;;5022070;28;20044;-78
2022/12/18 04:34:22;;;;;;;1999.90;999.90;;;;;;;;;;5004633;28;20575;-79
2022/12/18 04:36:47;;;;;;;1999.90;999.90;;;-0.50;99.90;;;;;;5020620;28;20111;-79
2022/12/18 04:39:14;;;;;;;1999.90;999.90;;;;;;;;;;5022753;28;20517;-83
2022/12/18 04:41:41;;;;;;;1999.90;999.90;;;-0.10;96.30;;;;;;5019162;28;20064;-80
2022/12/18 04:44:07;;;;;;;1999.90;999.90;;;;;;;;;;5001807;28;20068;-82
2022/12/18 04:46:32;;;;;;;1999.90;999.90;;;1.50;95.90;;;;;;5023323;28;20048;-79
2022/12/18 04:48:58;;;;;;;1999.90;999.90;;;;;;;;;;5009329;28;20037;-79
2022/12/18 04:51:24;;;;;;;1999.90;999.90;;;;;;;;;;5002927;28;20092;-80
2022/12/18 04:53:50;;;;;;;1999.90;999.90;;;;;;;;;;5022435;28;20069;-80
2022/12/18 04:56:17;;;;;;;1999.90;999.90;;;;;;;;;;5005184;28;20045;-81
2022/12/18 04:58:44;;;;;;;1999.90;999.90;;;-0.30;84.40;;;;;;5006046;28;20065;-79
2022/12/18 05:01:11;;;;;;;1999.90;999.90;;;-0.60;92.90;;;;;;5005306;28;20049;-77
2022/12/18 05:03:38;;;;;;;1999.90;999.90;;;-0.80;92.90;;;;;;5022440;28;20057;-80
2022/12/18 05:06:05;;;;;;;1999.90;999.90;;;-3.20;84.70;;;;;;5023848;28;20045;-83
2022/12/18 05:08:31;;;;;;;1999.90;999.90;;;;;;;;;;5000887;28;20575;-80
2022/12/18 05:11:09;;;;;;;1999.90;999.90;;;-2.00;40.40;;;;;;5027239;28;21214;-79
2022/12/18 05:13:36;;;;;;;1999.90;999.90;;;-0.60;47.60;;;;;;5026369;28;20041;-79
2022/12/18 05:16:02;;;;;;;1999.90;999.90;;;;;;;;;;5026915;28;20037;-81
2022/12/18 05:18:29;;;;;;;1999.90;999.90;;;-2.10;35.60;;;;;;5025954;28;20056;-79
2022/12/18 05:20:55;;;;;;;1999.90;999.90;;;;;;;;;;5026857;28;20045;-79
2022/12/18 05:23:22;;;;;;;1999.90;999.90;;;-0.60;45.30;;;;;;5026162;28;20424;-78
2022/12/18 05:25:56;;;;;;;1999.90;999.90;;;-1.60;48.60;;;;;;5027693;28;20038;-78
2022/12/18 05:28:23;;;;;;;1999.90;999.90;;;-0.90;74.70;;;;;;5024590;28;20123;-79
2022/12/18 05:30:50;;;;;;;1999.90;999.90;;;-2.90;78.70;;;;;;5025295;28;20080;-83
2022/12/18 05:33:17;;;;;;;1999.90;999.90;;;-0.80;1.00;;;;;;5010288;28;20057;-78
2022/12/18 05:35:43;;;;;;;1999.90;999.90;;;-1.50;29.00;;;;;;5025706;28;20460;-78
2022/12/18 05:38:10;;;;;;;1999.90;999.90;;;;;;;;;;5024044;28;20124;-78
2022/12/18 05:40:36;;;;;;;1999.90;999.90;;;-2.10;37.80;;;;;;5027479;28;20042;-78
2022/12/18 05:43:02;;;;;;;1999.90;999.90;;;1.40;8.20;;;;;;5028157;28;20081;-79
2022/12/18 05:45:28;;;;;;;1999.90;999.90;;;;;;;;;;5010480;28;20069;-79
2022/12/18 05:47:54;;;;;;;1999.90;999.90;;;-0.40;29.10;;;;;;5009623;28;20191;-78
2022/12/18 05:50:20;;;;;;;1999.90;999.90;;;;;;;;;;5026004;28;20119;-79
2022/12/18 05:52:46;;;;;;;1999.90;999.90;;;;;;;;;;5015873;28;20497;-79
2022/12/18 05:55:12;;;;;;;1999.90;999.90;;;;;;;;;;5026116;28;20045;-82
2022/12/18 05:57:37;;;;;;;1999.90;999.90;;;-0.60;1.00;;;;;;5027064;28;20042;-78
2022/12/18 06:00:04;;;;;;;1999.90;999.90;;;-1.40;1.00;;;;;;5009542;28;20038;-78
2022/12/18 06:02:30;;;;;;;1999.90;999.90;;;;;;;;;;5008481;28;20146;-81
2022/12/18 06:04:55;;;;;;;1999.90;999.90;;;-3.80;1.00;;;;;;5010351;28;20044;-78
2022/12/18 06:07:21;;;;;;;1999.90;999.90;;;;;;;;;;5027073;28;20402;-80
2022/12/18 06:09:47;;;;;;;1999.90;999.90;;;;;;;;;;5026752;28;20049;-78
2022/12/18 06:12:13;;;;;;;1999.90;999.90;;;;;;;;;;5027686;28;20037;-79
2022/12/18 06:14:39;;;;;;;1999.90;999.90;;;;;;;;;;5027704;28;20037;-78
2022/12/18 06:17:06;;;;;;;1999.90;999.90;;;-1.00;3.50;;;;;;5007980;28;20120;-78
2022/12/18 06:19:32;;;;;;;1999.90;999.90;;;;;;;;;;5026184;28;20501;-83
2022/12/18 06:21:58;;;;;;;1999.90;999.90;;;;;;;;;;5008195;28;20422;-81
2022/12/18 06:24:24;;;;;;;1999.90;999.90;;;-1.20;1.00;;;;;;5026591;28;20084;-79
2022/12/18 06:26:50;;;;;;;1999.90;999.90;;;;;;;;;;5010338;28;20048;-78
2022/12/18 06:29:16;;;;;;;1999.90;999.90;;;-1.40;1.00;;;;;;5025916;28;20470;-81
2022/12/18 06:31:42;;;;;;;1999.90;999.90;;;;;;;;;;4989877;28;20049;-79
2022/12/18 06:34:08;;;;;;;1999.90;999.90;;;-2.20;1.00;;;;;;5024217;28;20041;-83
2022/12/18 06:36:33;;;;;;;1999.90;999.90;;;0.00;1.00;;;;;;5030559;28;20044;-76
2022/12/18 06:38:59;;;;;;;1999.90;999.90;;;;;;;;;;5037152;28;20041;-81
2022/12/18 06:41:25;;;;;;;1999.90;999.90;;;;;;;;;;5036651;28;20930;-81
2022/12/18 06:43:51;;;;;;;1999.90;999.90;;;-1.80;1.00;;;;;;5038038;28;20049;-78
2022/12/18 06:46:17;;;;;;;1999.90;999.90;;;0.50;1.00;;;;;;5019626;28;20071;-78
2022/12/18 06:48:43;;;;;;;1999.90;999.90;;;;;;;;;;5040583;28;20109;-77
2022/12/18 06:51:09;;;;;;;1999.90;999.90;;;-1.50;1.00;;;;;;5041894;28;20048;-77
2022/12/18 06:53:35;;;;;;;1999.90;999.90;;;;;;;;;;5039792;28;20045;-82
2022/12/18 06:56:06;;;;;;;1999.90;999.90;;;-1.40;7.20;;;;;;5022671;28;20429;-77
2022/12/18 06:58:32;;;;;;;1999.90;999.90;;;;;;;;;;5046053;28;20068;-76
2022/12/18 07:01:03;;;;;;;1999.90;999.90;;;-1.00;1.00;;;;;;5024642;28;20083;-79
2022/12/18 07:03:30;;;;;;;1999.90;999.90;;;;;;;;;;5020167;28;20045;-77
2022/12/18 07:05:56;;;;;;;1999.90;999.90;;;-0.10;1.00;;;;;;5034522;28;20390;-77
2022/12/18 07:08:22;;;;;;;1999.90;999.90;;;;;;;;;;5017758;28;20046;-77
2022/12/18 07:10:51;;;;;;;1999.90;999.90;;;;;;;;;;5028753;28;20041;-78
2022/12/18 07:13:17;;;;;;;1999.90;999.90;;;;;;;;;;5028722;28;20060;-78
2022/12/18 07:15:43;;;;;;;1999.90;999.90;;;0.30;1.00;;;;;;5032424;28;20083;-78
2022/12/18 07:18:09;;;;;;;1999.90;999.90;;;;;;;;;;5031979;28;20056;-78
2022/12/18 07:20:36;;;;;;;1999.90;999.90;;;;;;;;;;5032630;28;20049;-78
2022/12/18 07:23:03;;;;;;;1999.90;999.90;;;-1.10;1.00;;;;;;5011859;28;20175;-77
2022/12/18 07:25:29;;;;;;;1999.90;999.90;;;;;;;;;;5030797;28;20041;-81
2022/12/18 07:27:55;;;;;;;1999.90;999.90;;;;;;;;;;5014627;28;20037;-77
2022/12/18 07:30:21;;;;;;;1999.90;999.90;;;;;;;;;;5031542;28;20041;-77
2022/12/18 07:32:47;;;;;;;1999.90;999.90;;;;;;;;;;5026530;28;20818;-77
2022/12/18 07:35:13;;;;;;;1999.90;999.90;;;;;;;;;;5010855;28;20045;-77
2022/12/18 07:37:39;;;;;;;1999.90;999.90;;;-1.30;1.00;;;;;;5033193;28;20132;-77
2022/12/18 07:40:06;;;;;;;1999.90;999.90;;;;;;;;;;5015890;28;20136;-78
2022/12/18 07:42:32;;;;;;;1999.90;999.90;;;;;;;;;;5031836;28;20050;-78
2022/12/18 07:44:59;;;;;;;1999.90;999.90;;;-1.00;1.00;;;;;;5009468;28;20133;-78
2022/12/18 07:47:25;;;;;;;1999.90;999.90;;;;;;;;;;5030511;28;20490;-78
2022/12/18 07:49:51;;;;;;;1999.90;999.90;;;;;;;;;;5026083;28;20041;-78
2022/12/18 07:52:17;;;;;;;1999.90;999.90;;;;;;;;;;5009317;28;20057;-78
2022/12/18 07:54:43;;;;;;;1999.90;999.90;;;;;;;;;;5013066;28;20079;-78
2022/12/18 07:57:09;;;;;;;1999.90;999.90;;;2.90;1.00;;;;;;5031231;28;20095;-78
2022/12/18 07:59:35;;;;;;;1999.90;999.90;;;;;;;;;;5031780;28;20398;-78
2022/12/18 08:02:02;;;;;;;1999.90;999.90;;;;;;;;;;5029531;28;20486;-80
2022/12/18 08:04:27;;;;;;;1999.90;999.90;;;-1.40;99.90;;;;;;5009681;28;20037;-81
2022/12/18 08:06:53;;;;;;;1999.90;999.90;;;;;;;;;;5015319;28;20060;-82
2022/12/18 08:09:19;;;;;;;1999.90;999.90;;;1.80;99.90;;;;;;5009756;28;20037;-80
2022/12/18 08:11:45;;;;;;;1999.90;999.90;;;-0.30;99.90;;;;;;5011822;28;20555;-81
2022/12/18 08:14:10;;;;;;;1999.90;999.90;;;-0.80;99.90;;;;;;5012673;28;20042;-81
2022/12/18 08:16:37;;;;;;;1999.90;999.90;;;;;;;;;;5010830;28;20053;-85
2022/12/18 08:19:03;;;;;;;1999.90;999.90;;;;;;;;;;5029875;28;20084;-81
2022/12/18 08:21:30;;;;;;;1999.90;999.90;;;-0.90;1.00;;;;;;5028107;28;20328;-79
2022/12/18 08:23:58;;;;;;;1999.90;999.90;;;0.80;99.90;;;;;;5029201;28;20084;-85
2022/12/18 08:26:26;;;;;;;1999.90;999.90;;;-0.80;99.90;;;;;;5010433;28;20060;-83
2022/12/18 08:28:54;;;;;;;1999.90;999.90;;;-1.90;1.00;;;;;;5031221;28;20049;-80
2022/12/18 08:31:20;;;;;;;;;;;-0.60;1.00;;;;;;5013283;28;20120;-80
2022/12/18 08:33:49;;;;;;;1999.90;999.90;;;-1.00;99.90;;;;;;5026981;28;19928;-80
2022/12/18 08:36:15;;;;;;;1999.90;999.90;;;-0.60;99.90;;;;;;5028658;28;20056;-80
2022/12/18 08:38:41;;;;;;;1999.90;999.90;;;;;;;;;;5030990;28;20045;-80
2022/12/18 08:41:10;;;;;;;1999.90;999.90;;;-0.50;99.90;;;;;;5010982;28;20092;-81
2022/12/18 08:46:22;;;;;;;1999.90;999.90;;;1.50;99.90;;;;;;5021165;28;20118;-81
2022/12/18 08:48:49;;;;;;;1999.90;999.90;;;2.40;99.90;;;;;;5025919;28;20038;-81
2022/12/18 08:51:19;;;;;;;1999.90;999.90;;;-0.30;99.90;;;;;;5028765;28;20065;-80
2022/12/18 08:53:45;;;;;;;1999.90;999.90;;;;;;;;;;4997056;28;20060;-81
2022/12/18 08:56:12;;;;;;;1999.90;999.90;;;-2.80;99.90;;;;;;5015152;28;20048;-81
2022/12/18 08:58:38;;;;;;;1999.90;999.90;;;;;;;;;;4996480;28;20049;-86
2022/12/18 09:01:09;;;;;;;1999.90;999.90;;;-0.40;99.90;;;;;;5010678;28;20451;-82
2022/12/18 09:03:35;;;;;;;1999.90;999.90;;;2.90;99.90;;;;;;5004857;28;20057;-81
2022/12/18 09:06:01;;;;;;;1999.90;999.90;;;-2.00;99.90;;;;;;5034401;28;20061;-81
2022/12/18 09:08:27;;;;;;;1999.90;999.90;;;;;;;;;;5016641;28;20037;-81
2022/12/18 09:10:53;;;;;;;1999.90;999.90;;;;;;;;;;5035278;28;20049;-82
2022/12/18 09:13:19;;;;;;;1999.90;999.90;;;1.40;99.90;;;;;;5035757;28;20049;-82
2022/12/18 09:15:47;;;;;;;1999.90;999.90;;;-0.10;99.90;;;;;;5017483;28;20044;-81
2022/12/18 09:18:14;;;;;;;1999.90;999.90;;;-0.20;99.90;;;;;;5032615;28;20049;-80
2022/12/18 09:20:40;;;;;;;1999.90;999.90;;;-0.80;99.90;;;;;;4985849;28;20061;-82
2022/12/18 09:23:06;;;;;;;1999.90;999.90;;;0.10;99.90;;;;;;5014361;28;20046;-81
2022/12/18 09:25:35;;;;;;;1999.90;999.90;;;-0.10;99.90;;;;;;4998055;28;20247;-81
2022/12/18 09:28:02;;;;;;;1999.90;999.90;;;0.00;99.90;;;;;;5026060;28;20053;-81
2022/12/18 09:30:28;;;;;;;1999.90;999.90;;;0.10;99.90;;;;;;5034445;28;20061;-79
2022/12/18 09:32:54;;;;;;;1999.90;999.90;;;0.50;99.90;;;;;;5033694;28;20394;-80
2022/12/18 09:35:20;;;;;;;1999.90;999.90;;;0.00;99.90;;;;;;5035179;28;20486;-80
2022/12/18 09:37:46;;;;;;;1999.90;999.90;;;-0.50;99.90;;;;;;5033164;28;20116;-84
2022/12/18 09:40:17;;;;;;;1999.90;999.90;;;-0.10;99.90;;;;;;5034073;28;20050;-82
2022/12/18 09:42:50;;;;;;;1999.90;999.90;;;0.60;99.90;;;;;;5034541;28;20103;-82
2022/12/18 09:45:17;;;;;;;1999.90;999.90;;;0.20;99.90;;;;;;5017647;28;20132;-80
2022/12/18 09:47:47;;;;;;;1999.90;999.90;;;0.70;99.90;;;;;;5032505;28;20049;-87
2022/12/18 09:50:23;;;;;;;1999.90;999.90;;;0.80;99.90;;;;;;5033429;28;20054;-80
2022/12/18 09:52:53;;;;;;;1999.90;999.90;;;0.70;99.90;;;;;;5034210;28;20058;-80
2022/12/18 09:55:33;;;;;;;1999.90;999.90;;;2.20;99.90;;;;;;5034536;28;20048;-79
2022/12/18 09:58:11;;;;;;;1999.90;999.90;;;1.30;99.90;;;;;;5020415;28;20041;-80
2022/12/18 10:00:37;;;;;;;1999.90;999.90;;;0.70;99.90;;;;;;5032956;28;20053;-79
2022/12/18 10:03:10;;;;;;;1999.90;999.90;;;0.20;99.90;;;;;;5032455;28;20049;-79
2022/12/18 10:05:38;;;;;;;1999.90;999.90;;;3.80;99.90;;;;;;5034788;28;20057;-79
2022/12/18 10:08:10;;;;;;;1999.90;999.90;;;1.20;99.90;;;;;;5033002;28;20054;-80
2022/12/18 10:10:52;;;;;;;1999.90;999.90;;;1.10;99.90;;;;;;5033898;28;20067;-79
2022/12/18 10:13:44;;;;;;;1999.90;999.90;;;-0.20;99.90;;;;;;5032088;28;20041;-85
2022/12/18 10:16:16;;;;;;;1999.90;999.90;;;3.00;99.90;;;;;;4982548;28;20466;-80
2022/12/18 10:19:00;;;;;;;1999.90;999.90;;;0.40;99.90;;;;;;5033449;28;20048;-81
2022/12/18 10:21:32;;;;;;;1999.90;999.90;;;0.70;99.90;;;;;;5029398;28;20057;-80
2022/12/18 10:24:24;;;;;;;1999.90;999.90;;;1.00;99.90;;;;;;5016367;28;20132;-81
2022/12/18 10:26:50;;;;;;;1999.90;999.90;;;1.40;99.90;;;;;;4998961;28;20057;-81
2022/12/18 10:29:16;;;;;;;1999.90;999.90;;;1.00;99.90;;;;;;5031756;28;20110;-84
2022/12/18 10:31:43;;;;;;;1999.90;999.90;;;-0.20;99.90;;;;;;5014053;28;20049;-79
2022/12/18 10:34:10;;;;;;;1999.90;999.90;;;1.10;99.90;;;;;;5032547;28;20052;-80
2022/12/18 10:36:36;;;;;;;1999.90;999.90;;;-0.70;99.90;;;;;;5012980;28;20056;-78
2022/12/18 10:39:23;;;;;;;1999.90;999.90;;;1.20;99.90;;;;;;5015050;28;20045;-79
2022/12/18 10:41:49;;;;;;;1999.90;999.90;;;4.20;99.90;;;;;;5029481;28;20076;-79
2022/12/18 10:44:20;;;;;;;1999.90;999.90;;;1.20;99.90;;;;;;5032444;28;20069;-79
2022/12/18 10:46:48;;;;;;;1999.90;999.90;;;-1.20;99.90;;;;;;5032227;28;20402;-79
2022/12/18 10:49:29;;;;;;;1999.90;999.90;;;0.20;99.90;;;;;;5015614;28;20106;-81
2022/12/18 10:52:25;;;;;;;1999.90;999.90;;;1.60;99.90;;;;;;5026114;28;20494;-80
2022/12/18 10:55:04;;;;;;;1999.90;999.90;;;1.40;99.90;;;;;;4995427;28;20061;-80
2022/12/18 10:57:33;;;;;;;1999.90;999.90;;;1.10;99.90;;;;;;5034880;28;20045;-80
2022/12/18 11:00:19;;;;;;;1999.90;999.90;;;2.00;99.90;;;;;;5029382;28;20045;-82
2022/12/18 11:02:45;;;;;;;1999.90;999.90;;;1.70;99.90;;;;;;5027152;28;20128;-81
2022/12/18 11:05:29;;;;;;;1999.90;999.90;;;1.80;99.90;;;;;;5013239;28;20120;-81
2022/12/18 11:07:56;;;;;;;1999.90;999.90;;;2.70;99.90;;;;;;5030939;28;20125;-81
2022/12/18 11:10:30;;;;;;;1999.90;999.90;;;1.50;99.90;;;;;;5029982;28;20033;-83
2022/12/18 11:12:56;;;;;;;1999.90;999.90;;;1.60;99.90;;;;;;5012066;28;20296;-82
2022/12/18 11:15:28;;;;;;;1999.90;999.90;;;1.50;99.90;;;;;;5030083;28;20037;-80
2022/12/18 11:17:53;;;;;;;1999.90;999.90;;;2.40;92.80;;;;;;5026463;28;20041;-80
2022/12/18 11:20:35;;;;;;;1999.90;999.90;;;2.70;99.90;;;;;;5030294;28;20053;-81
2022/12/18 11:23:11;;;;;;;1999.90;999.90;;;2.90;97.90;;;;;;5008117;28;20042;-79
2022/12/18 11:25:38;;;;;;;1999.90;999.90;;;2.30;99.90;;;;;;5009428;28;20048;-80
2022/12/18 11:28:05;;;;;;;1999.90;999.90;;;2.40;95.90;;;;;;5030387;28;20386;-81
2022/12/18 11:30:33;;;;;;;1999.90;999.90;;;2.00;54.80;;;;;;5031471;28;20041;-80
2022/12/18 11:33:16;;;;;;;1999.90;999.90;;;3.80;99.90;;;;;;5019545;28;20037;-81
2022/12/18 11:35:49;;;;;;;1999.90;999.90;;;2.10;68.90;;;;;;5030366;28;20488;-81
2022/12/18 11:38:25;;;;;;;1999.90;999.90;;;3.90;99.90;;;;;;5030302;28;20041;-79
2022/12/18 11:41:04;;;;;;;1999.90;999.90;;;2.20;64.70;;;;;;5014374;28;20050;-79
2022/12/18 11:43:42;;;;;;;1999.90;999.90;;;2.00;81.80;;;;;;5027470;28;20654;-85
2022/12/18 11:46:33;;;;;;;1999.90;999.90;;;2.00;74.20;;;;;;5028877;28;20107;-80
2022/12/18 11:49:07;;;;;;;1999.90;999.90;;;2.00;89.10;;;;;;5026134;28;20055;-81
2022/12/18 11:51:50;;;;;;;1999.90;999.90;;;1.30;71.00;;;;;;5025323;28;20061;-84
2022/12/18 11:54:16;;;;;;;1999.90;999.90;;;0.40;62.80;;;;;;5016925;28;20406;-81
2022/12/18 11:57:04;;;;;;;1999.90;999.90;;;2.30;72.50;;;;;;5031992;28;20049;-79
2022/12/18 11:59:58;;;;;;;1999.90;999.90;;;3.60;75.90;;;;;;5029805;28;20045;-79
2022/12/18 12:02:42;;;;;;;1999.90;999.90;;;2.30;99.70;;;;;;5028636;28;20108;-82
2022/12/18 12:05:31;;;;;;;1999.90;999.90;;;1.70;91.10;;;;;;5020573;28;20037;-78
2022/12/18 12:08:29;;;;;;;1999.90;999.90;;;3.10;48.30;;;;;;5032022;28;20056;-79
2022/12/18 12:11:00;;;;;;;1999.90;999.90;;;1.50;49.40;;;;;;5030667;28;20045;-89
2022/12/18 12:13:32;;;;;;;1999.90;999.90;;;1.10;85.50;;;;;;5011454;28;20060;-79
2022/12/18 12:16:17;;;;;;;1999.90;999.90;;;3.20;90.10;;;;;;5026784;28;20041;-80
2022/12/18 12:19:20;;;;;;;1999.90;999.90;;;2.20;42.30;;;;;;5032179;28;20498;-79
2022/12/18 12:21:55;;;;;;;1999.90;999.90;;;3.50;41.20;;;;;;5026107;28;20049;-79
2022/12/18 12:24:37;;;;;;;1999.90;999.90;;;3.20;65.40;;;;;;5028046;28;20103;-79
2022/12/18 12:27:15;;;;;;;1999.90;999.90;;;1.90;58.60;;;;;;5030979;28;20049;-78
2022/12/18 12:29:59;;;;;;;1999.90;999.90;;;2.60;27.60;;;;;;5011483;28;20050;-79
2022/12/18 12:32:27;;;;;;;1999.90;999.90;;;1.60;58.80;;;;;;5028911;28;20053;-80
2022/12/18 12:35:20;;;;;;;1999.90;999.90;;;2.00;24.30;;;;;;5025517;28;20443;-82
2022/12/18 12:38:02;;;;;;;1999.90;999.90;;;1.40;58.60;;;;;;5029370;28;20115;-80
2022/12/18 12:40:31;;;;;;;1999.90;999.90;;;2.30;1.00;;;;;;5012647;28;20041;-79
2022/12/18 12:43:12;;;;;;;1999.90;999.90;;;4.60;8.10;;;;;;5015055;28;20056;-79
2022/12/18 12:45:45;;;;;;;1999.90;999.90;;;3.10;17.40;;;;;;5030605;28;20108;-79
2022/12/18 12:48:28;;;;;;;1999.90;999.90;;;2.30;15.20;;;;;;5027266;28;20120;-81
2022/12/18 12:50:55;;;;;;;1999.90;999.90;;;3.10;1.00;;;;;;5032539;28;20057;-80
2022/12/18 12:53:30;;;;;;;1999.90;999.90;;;2.40;14.00;;;;;;5011438;28;20375;-81